Time;durP1;ratioP1;P1;durP2;ratioP2;P2;SDS_P1;SDS_P2;PMS_P1;PMS_P2;Temp;Humidity;BMP_temperature;BMP_pressure;BME280_temperature;BME280_humidity;BME280_pressure;Samples;Min_cycle;Max_cycle;Signal;HPM_P1;HPM_P2
2024/04/15 00:01:48;;;;;;;6.50;4.80;;;;;;;13.40;92.48;99262.80;105902;1254;70499;-77
2024/04/15 00:04:15;;;;;;;6.10;5.00;;;;;;;13.37;92.85;99263.28;105949;1254;72753;-79
2024/04/15 00:06:43;;;;;;;6.50;4.80;;;;;;;13.36;92.99;99266.71;106941;1254;61247;-78
2024/04/15 00:09:10;;;;;;;8.60;4.80;;;;;;;13.38;92.55;99267.17;106612;1260;61195;-76
2024/04/15 00:11:37;;;;;;;5.40;4.60;;;;;;;13.42;92.26;99268.77;107367;1258;77013;-79
2024/04/15 00:14:04;;;;;;;5.90;4.80;;;;;;;13.42;92.16;99272.78;107013;1254;68728;-76
2024/04/15 00:16:32;;;;;;;7.20;4.70;;;;;;;13.38;92.01;99277.33;107490;1256;73048;-80
2024/04/15 00:18:59;;;;;;;5.20;4.20;;;;;;;13.36;91.36;99278.75;107088;1254;61243;-79
2024/04/15 00:21:27;;;;;;;6.10;4.10;;;;;;;13.41;90.81;99277.29;106700;1260;61160;-78
2024/04/15 00:23:54;;;;;;;6.50;4.00;;;;;;;13.40;90.72;99274.88;107645;1254;74619;-76
2024/04/15 00:26:21;;;;;;;6.40;4.30;;;;;;;13.37;90.01;99274.44;107096;1254;68837;-81
2024/04/15 00:28:48;;;;;;;5.50;4.40;;;;;;;13.30;89.12;99277.89;106610;1254;72671;-78
2024/04/15 00:31:16;;;;;;;7.10;4.00;;;;;;;13.26;88.20;99273.61;106732;1254;59912;-78
2024/04/15 00:33:46;;;;;;;4.40;3.80;;;;;;;13.29;87.57;99272.77;106460;1254;61333;-78
2024/04/15 00:36:13;;;;;;;7.30;4.30;;;;;;;13.26;87.18;99279.45;106177;1254;74693;-78
2024/04/15 00:38:40;;;;;;;6.60;3.70;;;;;;;13.21;87.09;99278.21;105831;1254;68935;-78
2024/04/15 00:41:08;;;;;;;7.20;4.30;;;;;;;13.15;86.83;99288.86;105758;1256;72739;-80
2024/04/15 00:43:35;;;;;;;8.60;4.50;;;;;;;13.11;86.48;99287.23;106995;1255;60442;-78
2024/04/15 00:46:03;;;;;;;5.10;3.60;;;;;;;13.14;86.29;99286.31;105906;1254;61298;-78
2024/04/15 00:48:31;;;;;;;6.50;3.90;;;;;;;13.18;86.28;99283.70;105692;1254;73431;-79
2024/04/15 00:50:58;;;;;;;5.90;4.20;;;;;;;13.12;86.39;99284.66;105771;1260;68975;-82
2024/04/15 00:53:25;;;;;;;5.60;4.60;;;;;;;13.05;86.86;99282.89;105814;1259;71082;-79
2024/04/15 00:55:53;;;;;;;7.10;4.30;;;;;;;12.99;87.04;99286.09;105709;1260;61307;-80
2024/04/15 00:58:21;;;;;;;4.80;4.10;;;;;;;13.00;86.81;99290.98;105786;1254;60227;-80
2024/04/15 01:00:48;;;;;;;4.70;4.30;;;;;;;12.99;87.08;99294.26;105829;1254;73428;-79
2024/04/15 01:03:15;;;;;;;6.20;4.30;;;;;;;12.91;87.46;99288.38;105848;1254;68751;-79
2024/04/15 01:05:43;;;;;;;7.10;5.00;;;;;;;12.80;87.91;99289.23;105786;1254;70580;-78
2024/04/15 01:08:10;;;;;;;6.00;4.80;;;;;;;12.72;88.33;99289.14;105773;1254;61400;-78
2024/04/15 01:10:37;;;;;;;6.60;4.20;;;;;;;12.73;88.60;99290.95;105943;1254;61246;-77
2024/04/15 01:13:25;;;;;;;7.00;4.80;;;;;;;12.78;88.66;99300.33;105956;1254;74635;-79
2024/04/15 01:15:58;;;;;;;7.50;4.80;;;;;;;12.76;89.16;99304.21;107092;1261;70942;-77
2024/04/15 01:18:26;;;;;;;6.40;4.80;;;;;;;12.75;89.29;99304.75;108597;1254;71499;-77
2024/04/15 01:20:56;;;;;;;5.70;3.70;;;;;;;12.76;88.98;99308.85;107385;1258;62612;-77
2024/04/15 01:23:27;;;;;;;5.00;3.70;;;;;;;12.86;87.13;99305.75;106386;1254;61324;-78
2024/04/15 01:25:54;;;;;;;3.60;3.20;;;;;;;12.89;85.54;99306.03;107073;1254;75717;-78
2024/04/15 01:28:21;;;;;;;3.60;3.30;;;;;;;12.84;83.30;99310.23;108536;1254;69343;-78
2024/04/15 01:30:49;;;;;;;5.40;3.50;;;;;;;12.79;82.58;99310.30;108530;1257;71035;-75
2024/04/15 01:33:16;;;;;;;5.10;3.80;;;;;;;12.75;81.65;99312.94;106506;1257;61346;-79
2024/04/15 01:35:43;;;;;;;4.80;2.90;;;;;;;12.71;81.26;99312.52;106516;1257;61148;-79
2024/04/15 01:38:11;;;;;;;4.60;3.10;;;;;;;12.75;79.75;99314.21;106987;1254;73433;-78
2024/04/15 01:40:38;;;;;;;5.40;2.80;;;;;;;12.70;78.96;99313.34;106198;1259;68839;-80
2024/04/15 01:43:06;;;;;;;7.00;3.50;;;;;;;12.58;78.47;99315.02;107646;1254;71490;-78
2024/04/15 01:45:33;;;;;;;4.50;3.10;;;;;;;12.49;78.86;99312.92;106492;1254;59975;-77
2024/04/15 01:48:01;;;;;;;4.60;3.00;;;;;;;12.40;78.36;99311.41;106081;1256;61125;-77
2024/04/15 01:50:29;;;;;;;4.70;3.30;;;;;;;12.31;77.81;99312.91;105956;1254;73369;-78
2024/04/15 01:52:56;;;;;;;4.00;3.00;;;;;;;12.20;77.40;99312.72;105850;1254;69930;-77
2024/04/15 01:55:23;;;;;;;3.00;2.70;;;;;;;12.18;77.00;99311.52;105813;1255;72645;-80
2024/04/15 01:57:51;;;;;;;3.40;2.70;;;;;;;12.15;77.23;99309.39;105828;1254;61281;-78
2024/04/15 02:00:18;;;;;;;7.60;2.90;;;;;;;12.06;77.42;99310.65;105904;1254;61250;-78
2024/04/15 02:02:45;;;;;;;3.40;3.10;;;;;;;11.96;77.43;99307.38;105706;1258;73439;-78
2024/04/15 02:05:13;;;;;;;5.40;2.70;;;;;;;11.89;77.63;99306.11;105888;1254;69933;-78
2024/04/15 02:07:40;;;;;;;5.40;3.50;;;;;;;11.81;77.28;99303.95;105905;1254;71386;-77
2024/04/15 02:10:08;;;;;;;5.90;2.90;;;;;;;11.68;76.90;99301.54;106963;1256;61330;-77
2024/04/15 02:12:35;;;;;;;3.30;2.50;;;;;;;11.55;76.44;99297.80;107917;1254;61305;-73
2024/04/15 02:15:03;;;;;;;5.70;2.50;;;;;;;11.50;75.55;99296.81;106891;1259;72897;-78
2024/04/15 02:17:30;;;;;;;3.40;2.50;;;;;;;11.48;75.16;99291.79;106330;1254;69459;-78
2024/04/15 02:19:58;;;;;;;6.30;3.00;;;;;;;11.38;75.75;99293.88;106569;1257;71215;-75
2024/04/15 02:22:25;;;;;;;15.00;8.30;;;;;;;11.26;76.00;99297.73;106437;1259;61359;-73
2024/04/15 02:24:53;;;;;;;8.20;5.30;;;;;;;11.17;76.30;99297.39;106474;1254;61272;-76
2024/04/15 02:27:20;;;;;;;5.50;4.20;;;;;;;11.05;76.19;99294.39;106400;1254;73398;-76
2024/04/15 02:29:47;;;;;;;4.70;4.00;;;;;;;10.91;76.48;99291.46;106253;1254;68672;-77
2024/04/15 02:32:15;;;;;;;5.50;3.20;;;;;;;10.79;76.88;99288.77;105991;1254;71364;-78
2024/04/15 02:34:42;;;;;;;3.80;2.60;;;;;;;10.83;77.14;99292.78;106020;1254;62561;-75
2024/04/15 02:37:09;;;;;;;5.30;2.80;;;;;;;10.87;77.09;99295.96;106087;1254;61360;-76
2024/04/15 02:39:38;;;;;;;2.30;2.10;;;;;;;10.82;77.01;99298.54;107002;1259;74591;-74
2024/04/15 02:42:06;;;;;;;5.10;3.40;;;;;;;10.76;77.31;99299.35;106327;1254;70203;-75
2024/04/15 02:44:33;;;;;;;11.30;8.20;;;;;;;10.71;77.23;99300.69;105993;1254;73168;-77
2024/04/15 02:47:01;;;;;;;5.10;3.80;;;;;;;10.64;77.18;99299.42;106212;1254;61349;-77
2024/04/15 02:49:28;;;;;;;5.70;3.20;;;;;;;10.58;77.27;99297.58;105875;1254;61304;-77
2024/04/15 02:51:55;;;;;;;5.80;3.90;;;;;;;10.53;77.05;99297.13;106300;1254;73390;-76
2024/04/15 02:54:23;;;;;;;4.30;2.80;;;;;;;10.50;76.94;99299.20;105768;1254;70610;-75
2024/04/15 02:56:50;;;;;;;4.10;2.70;;;;;;;10.56;76.75;99299.46;105834;1255;72669;-77
2024/04/15 02:59:17;;;;;;;5.70;3.00;;;;;;;10.57;76.04;99299.62;105900;1254;63013;-75
2024/04/15 03:01:44;;;;;;;3.70;2.40;;;;;;;10.53;76.19;99304.40;105962;1259;61355;-77
2024/04/15 03:04:12;;;;;;;5.50;3.50;;;;;;;10.47;76.15;99302.12;107401;1253;74640;-75
2024/04/15 03:06:39;;;;;;;6.70;3.30;;;;;;;10.42;75.67;99309.33;107698;1254;69050;-78
2024/04/15 03:09:08;;;;;;;4.20;2.70;;;;;;;10.36;74.92;99320.85;106339;1259;71584;-76
2024/04/15 03:11:35;;;;;;;4.00;2.70;;;;;;;10.30;75.49;99320.52;106164;1258;61202;-74
2024/04/15 03:14:03;;;;;;;5.10;2.70;;;;;;;10.25;75.73;99322.66;106817;1254;61279;-76
2024/04/15 03:16:30;;;;;;;4.20;2.80;;;;;;;10.20;75.04;99322.86;106425;1254;73432;-75
2024/04/15 03:18:57;;;;;;;4.70;2.20;;;;;;;10.14;73.48;99322.80;105886;1258;70194;-76
2024/04/15 03:21:25;;;;;;;4.90;2.60;;;;;;;10.16;71.89;99325.45;105786;1254;72725;-76
2024/04/15 03:23:52;;;;;;;4.90;2.70;;;;;;;10.12;72.09;99330.17;105835;1258;61317;-78
2024/04/15 03:26:19;;;;;;;3.70;2.90;;;;;;;10.03;72.11;99336.99;105875;1256;61089;-77
2024/04/15 03:28:46;;;;;;;4.10;2.60;;;;;;;9.93;72.07;99338.23;105902;1259;74078;-78
2024/04/15 03:31:14;;;;;;;5.40;3.00;;;;;;;9.86;72.39;99344.21;105689;1254;70018;-77
2024/04/15 03:33:42;;;;;;;4.30;2.90;;;;;;;9.79;72.44;99346.20;105940;1256;72610;-77
2024/04/15 03:38:21;;;;;;;8.50;3.30;;;;;;;9.70;73.39;99349.78;102748;1292;599621;-76
2024/04/15 03:40:48;;;;;;;4.30;3.00;;;;;;;9.74;74.35;99348.34;105054;1267;60145;-77
2024/04/15 03:43:19;;;;;;;5.00;3.00;;;;;;;9.74;74.66;99350.34;105278;1271;59719;-78
2024/04/15 03:45:47;;;;;;;4.80;3.50;;;;;;;9.68;75.27;99347.80;105330;1272;73058;-78
2024/04/15 03:48:14;;;;;;;5.50;3.50;;;;;;;9.63;76.28;99344.84;105787;1267;69409;-78
2024/04/15 03:50:41;;;;;;;4.00;3.40;;;;;;;9.62;77.13;99341.95;106421;1267;71383;-77
2024/04/15 03:53:08;;;;;;;5.20;3.50;;;;;;;9.74;77.96;99339.48;107289;1256;187627;-78
2024/04/15 03:55:36;;;;;;;5.90;3.50;;;;;;;9.85;78.47;99336.29;106534;1254;59576;-77
2024/04/15 03:58:03;;;;;;;4.80;3.40;;;;;;;9.98;78.91;99331.88;108011;1254;71780;-78
2024/04/15 04:00:31;;;;;;;5.30;3.30;;;;;;;10.10;78.44;99331.58;107700;1254;68873;-76
2024/04/15 04:02:58;;;;;;;6.00;3.20;;;;;;;10.20;78.08;99328.63;105695;1257;73002;-77
2024/04/15 04:05:25;;;;;;;5.30;3.70;;;;;;;10.37;77.71;99330.85;105956;1256;60476;-79
2024/04/15 04:07:53;;;;;;;4.20;3.60;;;;;;;10.43;77.15;99331.60;105775;1254;60323;-78
2024/04/15 04:10:22;;;;;;;5.70;3.60;;;;;;;10.42;76.88;99331.96;105647;1254;76283;-77
2024/04/15 04:12:50;;;;;;;7.10;3.80;;;;;;;10.41;76.75;99324.84;105504;1263;69290;-77
2024/04/15 04:15:17;;;;;;;6.10;3.60;;;;;;;10.43;76.71;99320.88;105586;1256;72760;-77
2024/04/15 04:17:45;;;;;;;5.30;3.20;;;;;;;10.51;76.46;99316.54;105648;1262;60437;-77
2024/04/15 04:20:12;;;;;;;8.00;3.20;;;;;;;10.66;76.02;99315.32;105708;1258;60838;-78
2024/04/15 04:22:39;;;;;;;9.20;3.90;;;;;;;10.73;75.47;99316.88;105820;1259;73733;-77
2024/04/15 04:25:07;;;;;;;6.40;3.40;;;;;;;10.79;74.92;99315.83;105670;1262;68961;-77
2024/04/15 04:27:34;;;;;;;8.40;4.40;;;;;;;10.81;74.75;99311.01;105502;1256;71824;-76
2024/04/15 04:30:01;;;;;;;7.30;3.50;;;;;;;10.91;73.95;99316.95;105725;1254;60512;-75
2024/04/15 04:32:28;;;;;;;4.40;3.70;;;;;;;11.02;72.42;99324.92;105521;1263;60549;-79
2024/04/15 04:34:56;;;;;;;6.20;3.40;;;;;;;11.04;71.27;99326.02;105605;1256;72925;-78
2024/04/15 04:37:23;;;;;;;6.60;3.30;;;;;;;10.99;70.05;99327.14;105821;1259;69291;-80
2024/04/15 04:39:50;;;;;;;3.50;3.10;;;;;;;10.93;70.52;99328.75;105949;1254;72686;-79
2024/04/15 04:42:18;;;;;;;7.00;3.70;;;;;;;10.91;71.22;99328.97;105953;1253;60397;-81
2024/04/15 04:44:45;;;;;;;8.10;3.90;;;;;;;10.96;71.15;99333.19;106976;1256;60336;-76
2024/04/15 04:47:14;;;;;;;7.20;3.80;;;;;;;11.11;71.32;99330.63;106490;1254;73953;-78
2024/04/15 04:49:41;;;;;;;6.50;4.30;;;;;;;11.18;71.55;99328.19;108388;1253;70176;-77
2024/04/15 04:52:09;;;;;;;7.30;5.20;;;;;;;11.22;71.66;99329.56;109139;1252;71427;-76
2024/04/15 04:54:36;;;;;;;6.30;4.30;;;;;;;11.28;72.17;99325.52;106628;1254;60416;-76
2024/04/15 04:57:03;;;;;;;6.60;4.40;;;;;;;11.36;72.31;99322.40;106141;1253;60529;-78
2024/04/15 04:59:31;;;;;;;5.30;4.40;;;;;;;11.45;71.77;99315.70;106303;1252;72501;-80
2024/04/15 05:01:58;;;;;;;5.30;4.00;;;;;;;11.53;71.34;99313.66;106494;1253;68740;-78
2024/04/15 05:04:26;;;;;;;7.30;4.40;;;;;;;11.57;70.25;99309.96;107086;1257;71603;-79
2024/04/15 05:06:54;;;;;;;7.20;4.30;;;;;;;11.59;70.32;99303.15;108120;1253;59567;-77
2024/04/15 05:09:21;;;;;;;5.30;3.30;;;;;;;11.63;69.46;99294.15;107802;1253;60281;-77
2024/04/15 05:11:49;;;;;;;5.80;3.80;;;;;;;11.75;69.05;99291.83;106636;1253;72468;-79
2024/04/15 05:14:17;;;;;;;5.50;3.90;;;;;;;11.82;68.74;99287.46;106853;1254;71090;-79
2024/04/15 05:16:44;;;;;;;6.20;3.70;;;;;;;11.84;68.79;99281.58;106287;1256;74833;-79
2024/04/15 05:19:12;;;;;;;5.60;4.00;;;;;;;11.87;67.98;99281.23;106455;1254;60482;-78
2024/04/15 05:21:39;;;;;;;9.10;4.50;;;;;;;11.87;67.16;99279.36;106324;1253;62331;-80
2024/04/15 05:24:06;;;;;;;8.80;4.00;;;;;;;11.90;66.54;99273.56;106222;1253;74118;-79
2024/04/15 05:26:34;;;;;;;5.10;4.10;;;;;;;11.94;66.21;99269.35;106350;1253;72278;-79
2024/04/15 05:29:01;;;;;;;3.90;3.40;;;;;;;11.98;65.07;99269.52;106117;1254;72621;-79
2024/04/15 05:31:29;;;;;;;6.00;3.20;;;;;;;12.02;63.80;99274.71;106176;1254;61918;-78
2024/04/15 05:33:56;;;;;;;7.40;2.60;;;;;;;12.04;61.04;99271.13;107559;1252;61383;-82
2024/04/15 05:36:24;;;;;;;5.50;2.70;;;;;;;12.09;60.63;99272.70;109051;1253;72718;-79
2024/04/15 05:38:51;;;;;;;5.00;2.90;;;;;;;12.14;58.36;99267.19;108987;1254;69217;-81
2024/04/15 05:41:18;;;;;;;8.10;3.00;;;;;;;12.17;57.62;99264.52;109164;1253;74458;-79
2024/04/15 05:43:46;;;;;;;7.30;2.50;;;;;;;12.22;57.93;99260.98;108975;1254;59349;-80
2024/04/15 05:46:13;;;;;;;6.00;2.30;;;;;;;12.27;56.91;99257.27;107273;1261;62513;-82
2024/04/15 05:48:41;;;;;;;3.10;2.40;;;;;;;12.34;56.27;99250.33;107346;1255;73144;-82
2024/04/15 05:51:11;;;;;;;4.70;2.60;;;;;;;12.42;55.76;99243.84;107185;1253;70827;-82
2024/04/15 05:53:38;;;;;;;4.10;2.40;;;;;;;12.49;55.46;99239.06;106533;1257;71366;-83
2024/04/15 05:56:06;;;;;;;6.00;2.40;;;;;;;12.58;52.42;99249.50;106659;1254;62212;-82
2024/04/15 05:58:33;;;;;;;4.80;2.40;;;;;;;12.63;51.58;99252.16;106649;1253;60391;-79
2024/04/15 06:01:00;;;;;;;6.70;2.60;;;;;;;12.65;50.48;99256.52;106179;1253;76201;-80
2024/04/15 06:03:28;;;;;;;16.00;4.20;;;;;;;12.68;50.45;99256.80;106197;1260;71539;-82
2024/04/15 06:05:56;;;;;;;10.90;4.80;;;;;;;12.73;51.43;99258.31;106077;1253;72690;-81
2024/04/15 06:08:24;;;;;;;6.60;3.80;;;;;;;12.81;51.11;99262.80;106418;1255;62031;-80
2024/04/15 06:10:51;;;;;;;10.80;5.40;;;;;;;12.90;50.52;99273.64;106561;1252;60988;-82
2024/04/15 06:13:19;;;;;;;11.70;4.80;;;;;;;12.98;51.08;99278.05;107141;1253;76065;-81
2024/04/15 06:15:47;;;;;;;11.70;6.00;;;;;;;13.10;50.34;99261.84;107507;1253;72062;-82
2024/04/15 06:18:15;;;;;;;11.00;5.40;;;;;;;13.21;50.38;99246.55;106981;1260;72775;-79
2024/04/15 06:20:43;;;;;;;13.10;6.50;;;;;;;13.30;49.29;99246.61;107874;1253;61155;-81
2024/04/15 06:23:10;;;;;;;10.90;5.10;;;;;;;13.38;48.96;99244.32;106884;1254;60968;-79
2024/04/15 06:25:38;;;;;;;5.80;4.10;;;;;;;13.46;49.24;99243.86;106036;1254;73599;-77
2024/04/15 06:28:06;;;;;;;5.90;3.00;;;;;;;13.53;47.97;99242.74;106479;1253;72930;-81
2024/04/15 06:30:35;;;;;;;5.90;2.70;;;;;;;13.56;47.75;99242.77;106437;1253;73768;-82
2024/04/15 06:33:02;;;;;;;3.00;2.20;;;;;;;13.59;48.73;99243.95;107150;1253;62387;-82
2024/04/15 06:35:30;;;;;;;5.10;2.10;;;;;;;13.60;48.36;99251.02;108549;1253;61569;-81
2024/04/15 06:37:57;;;;;;;5.60;2.20;;;;;;;13.58;48.79;99248.55;109080;1254;74857;-81
2024/04/15 06:40:25;;;;;;;5.80;2.40;;;;;;;13.57;49.28;99236.06;107541;1254;70995;-83
2024/04/15 06:42:53;;;;;;;4.70;2.30;;;;;;;13.62;49.57;99228.25;107058;1254;73606;-82
2024/04/15 06:45:20;;;;;;;5.20;2.50;;;;;;;13.68;49.70;99232.82;106759;1255;60564;-81
2024/04/15 06:47:50;;;;;;;4.80;2.70;;;;;;;13.74;50.07;99227.20;106596;1254;60356;-80
2024/04/15 06:50:17;;;;;;;4.20;2.20;;;;;;;13.81;49.72;99225.84;106318;1255;74912;-80
2024/04/15 06:52:45;;;;;;;3.80;2.60;;;;;;;13.84;50.02;99224.94;106479;1254;69550;-83
2024/04/15 06:55:14;;;;;;;5.10;2.50;;;;;;;13.83;49.83;99221.84;106172;1255;72541;-80
2024/04/15 06:57:41;;;;;;;7.10;2.90;;;;;;;13.83;50.14;99229.29;106479;1258;60994;-82
2024/04/15 07:00:10;;;;;;;4.60;2.80;;;;;;;13.83;50.73;99219.19;106617;1253;61980;-84
2024/04/15 07:02:37;;;;;;;5.10;2.80;;;;;;;13.86;51.51;99226.88;106583;1254;73377;-83
2024/04/15 07:05:05;;;;;;;4.10;2.80;;;;;;;13.93;52.24;99225.33;106368;1254;71591;-83
2024/04/15 07:07:32;;;;;;;8.70;3.40;;;;;;;14.00;52.39;99227.18;106400;1254;71212;-83
2024/04/15 07:10:00;;;;;;;9.70;7.30;;;;;;;14.12;52.99;99226.02;106478;1256;62293;-85
2024/04/15 07:12:27;;;;;;;6.70;3.60;;;;;;;14.24;53.52;99213.86;107273;1254;60257;-84
2024/04/15 07:14:54;;;;;;;4.90;3.00;;;;;;;14.33;54.10;99217.06;108023;1256;74843;-84
2024/04/15 07:17:22;;;;;;;5.30;3.00;;;;;;;14.34;53.42;99216.95;107726;1254;69349;-82
2024/04/15 07:19:49;;;;;;;4.50;2.90;;;;;;;14.36;53.19;99222.66;107471;1259;72596;-85
2024/04/15 07:22:18;;;;;;;5.00;3.40;;;;;;;14.41;53.18;99216.16;106633;1256;60497;-78
2024/04/15 07:24:45;;;;;;;5.20;2.60;;;;;;;14.46;51.83;99218.51;106537;1255;61174;-81
2024/04/15 07:27:13;;;;;;;5.20;2.50;;;;;;;14.47;51.51;99215.42;106262;1256;75799;-82
2024/04/15 07:29:40;;;;;;;3.60;2.60;;;;;;;14.48;51.11;99207.12;109143;1254;69075;-80
2024/04/15 07:32:07;;;;;;;4.60;2.80;;;;;;;14.53;51.65;99206.05;109107;1254;73567;-80
2024/04/15 07:34:36;;;;;;;3.70;2.70;;;;;;;14.63;51.73;99203.35;107534;1254;61446;-78
2024/04/15 07:37:05;;;;;;;4.80;2.70;;;;;;;14.73;51.61;99198.27;106994;1254;62129;-81
2024/04/15 07:39:33;;;;;;;6.50;2.40;;;;;;;14.84;50.82;99197.80;106178;1259;71569;-79
2024/04/15 07:42:00;;;;;;;4.80;2.60;;;;;;;14.95;50.32;99179.47;106192;1256;72703;-79
2024/04/15 07:44:27;;;;;;;6.40;2.60;;;;;;;15.05;49.93;99176.64;108232;1253;73664;-77
2024/04/15 07:46:55;;;;;;;4.90;2.10;;;;;;;15.13;47.04;99165.70;107487;1254;61155;-85
2024/04/15 07:49:22;;;;;;;6.50;2.20;;;;;;;15.16;46.80;99157.83;107058;1258;61197;-83
2024/04/15 07:51:50;;;;;;;4.00;2.00;;;;;;;15.20;47.17;99150.54;106855;1259;75081;-84
2024/04/15 07:54:18;;;;;;;5.30;2.30;;;;;;;15.29;47.99;99155.27;106695;1253;69977;-85
2024/04/15 07:56:45;;;;;;;3.00;2.40;;;;;;;15.35;48.23;99148.77;106958;1254;73215;-86
2024/04/15 07:59:13;;;;;;;7.50;3.30;;;;;;;15.39;48.64;99132.86;106844;1254;60015;-85
2024/04/15 08:01:41;;;;;;;5.00;2.40;;;;;;;15.42;49.22;99130.13;108861;1253;60978;-85
2024/04/15 08:04:09;;;;;;;4.60;2.60;;;;;;;15.45;49.03;99150.98;108846;1254;73796;-84
2024/04/15 08:06:38;;;;;;;3.50;2.30;;;;;;;15.37;49.25;99142.74;108254;1253;68855;-82
2024/04/15 08:09:07;;;;;;;4.90;2.60;;;;;;;15.36;50.68;99143.66;106826;1259;71596;-81
2024/04/15 08:11:40;;;;;;;4.90;2.80;;;;;;;15.44;50.96;99143.46;106810;1254;61265;-81
2024/04/15 08:14:08;;;;;;;6.20;2.90;;;;;;;15.56;51.36;99137.09;106367;1253;61105;-81
2024/04/15 08:16:35;;;;;;;8.70;3.10;;;;;;;15.70;51.31;99142.98;106554;1256;76921;-80
2024/04/15 08:19:03;;;;;;;4.40;2.90;;;;;;;15.78;51.19;99141.02;106039;1253;72816;-81
2024/04/15 08:21:30;;;;;;;7.70;2.80;;;;;;;15.83;51.08;99142.92;106422;1259;71665;-81
2024/04/15 08:23:58;;;;;;;3.10;2.20;;;;;;;15.86;50.25;99144.83;108685;1253;62263;-81
2024/04/15 08:26:26;;;;;;;4.30;3.00;;;;;;;15.88;49.83;99154.21;109071;1256;60972;-87
2024/04/15 08:28:53;;;;;;;8.90;2.70;;;;;;;15.93;49.91;99145.11;109008;1255;74917;-85
2024/04/15 08:31:20;;;;;;;4.30;3.10;;;;;;;16.06;50.46;99144.84;107746;1257;70993;-79
2024/04/15 08:33:48;;;;;;;6.00;2.60;;;;;;;16.25;50.06;99153.59;106939;1257;72621;-78
2024/04/15 08:36:16;;;;;;;3.50;2.30;;;;;;;16.40;48.34;99146.29;107064;1255;61340;-80
2024/04/15 08:38:45;;;;;;;4.40;2.20;;;;;;;16.46;47.63;99145.55;106632;1257;61608;-80
2024/04/15 08:41:20;;;;;;;5.10;2.60;;;;;;;16.59;47.42;99137.14;107072;1259;76806;-82
2024/04/15 08:43:47;;;;;;;7.70;2.50;;;;;;;16.71;46.39;99141.52;108049;1256;72060;-81
2024/04/15 08:46:21;;;;;;;4.60;2.70;;;;;;;16.75;44.69;99132.04;107633;1257;73880;-78
2024/04/15 08:48:49;;;;;;;4.80;1.90;;;;;;;16.76;45.23;99123.48;106362;1256;61353;-80
2024/04/15 08:51:16;;;;;;;4.30;2.10;;;;;;;16.86;45.97;99124.50;108110;1256;62233;-82
2024/04/15 08:53:46;;;;;;;6.70;2.30;;;;;;;17.09;44.87;99116.84;107619;1256;75713;-82
2024/04/15 08:56:16;;;;;;;5.80;2.40;;;;;;;17.28;44.17;99126.02;108420;1257;71235;-81
2024/04/15 08:58:45;;;;;;;4.30;2.30;;;;;;;17.34;43.52;99130.34;107573;1254;74088;-84
2024/04/15 09:01:12;;;;;;;6.60;2.40;;;;;;;17.31;43.56;99129.41;108028;1257;61219;-84
2024/04/15 09:03:40;;;;;;;7.10;2.20;;;;;;;17.24;43.67;99139.83;107797;1256;61346;-82
2024/04/15 09:06:08;;;;;;;6.80;2.10;;;;;;;17.13;43.85;99121.88;107303;1258;77005;-81
2024/04/15 09:08:35;;;;;;;5.90;2.70;;;;;;;17.01;44.24;99123.02;107072;1258;72362;-82
2024/04/15 09:11:03;;;;;;;5.40;2.30;;;;;;;16.93;44.52;99124.40;107058;1256;73682;-82
2024/04/15 09:13:30;;;;;;;5.40;2.10;;;;;;;16.87;44.31;99133.83;106792;1257;61475;-81
2024/04/15 09:15:58;;;;;;;4.20;2.10;;;;;;;16.78;44.09;99137.23;108649;1256;59306;-82
2024/04/15 09:18:27;;;;;;;6.50;2.30;;;;;;;16.68;44.02;99147.98;108994;1256;75669;-81
2024/04/15 09:20:56;;;;;;;5.50;2.30;;;;;;;16.61;43.93;99155.81;109233;1256;71232;-80
2024/04/15 09:23:29;;;;;;;6.90;2.20;;;;;;;16.53;44.16;99151.81;109242;1256;73598;-85
2024/04/15 09:25:56;;;;;;;4.90;2.50;;;;;;;16.49;44.63;99156.14;109005;1256;58646;-77
2024/04/15 09:28:25;;;;;;;4.80;2.10;;;;;;;16.51;44.34;99145.69;108671;1257;61303;-78
2024/04/15 09:30:52;;;;;;;4.50;2.00;;;;;;;16.48;44.18;99140.26;108554;1256;74615;-81
2024/04/15 09:33:21;;;;;;;5.00;2.10;;;;;;;16.52;44.03;99137.48;108531;1256;71290;-82
2024/04/15 09:35:49;;;;;;;3.60;1.90;;;;;;;16.50;43.84;99128.95;108947;1257;73468;-82
2024/04/15 09:38:18;;;;;;;6.30;2.10;;;;;;;16.46;43.96;99129.89;108998;1256;61038;-83
2024/04/15 09:40:45;;;;;;;6.90;2.00;;;;;;;16.43;44.27;99126.39;109020;1256;59421;-78
2024/04/15 09:43:13;;;;;;;3.90;1.80;;;;;;;16.41;44.60;99124.17;108709;1256;76602;-84
2024/04/15 09:45:40;;;;;;;6.50;2.20;;;;;;;16.39;44.69;99122.38;108855;1256;71066;-83
2024/04/15 09:48:13;;;;;;;5.90;2.60;;;;;;;16.37;45.06;99120.49;108874;1256;73862;-83
2024/04/15 09:50:44;;;;;;;4.30;2.70;;;;;;;16.36;45.33;99119.02;108678;1259;59460;-80
2024/04/15 09:53:18;;;;;;;4.70;2.20;;;;;;;16.31;45.33;99119.40;108728;1256;58728;-80
2024/04/15 09:55:52;;;;;;;5.10;2.30;;;;;;;16.22;45.48;99113.45;108679;1256;75139;-82
2024/04/15 09:58:21;;;;;;;5.70;1.80;;;;;;;16.14;45.50;99115.71;108574;1256;71362;-79
2024/04/15 10:00:49;;;;;;;5.40;2.00;;;;;;;16.06;44.73;99109.11;108499;1256;73833;-78
2024/04/15 10:03:22;;;;;;;5.10;1.80;;;;;;;15.97;44.45;99113.09;108616;1256;61229;-79
2024/04/15 10:05:50;;;;;;;;;;;;;;;15.88;44.46;99116.13;108357;1256;60972;-82
2024/04/15 10:08:18;;;;;;;6.70;2.00;;;;;;;15.77;44.43;99121.20;108084;1256;76831;-78
2024/04/15 10:10:45;;;;;;;6.50;2.10;;;;;;;15.69;44.77;99109.56;108482;1255;71222;-82
2024/04/15 10:13:13;;;;;;;5.60;1.90;;;;;;;15.66;45.06;99104.90;108989;1256;73796;-82
2024/04/15 10:15:40;;;;;;;9.50;2.20;;;;;;;15.64;45.17;99106.23;108859;1256;60993;-82
2024/04/15 10:18:12;;;;;;;5.60;1.80;;;;;;;15.63;45.52;99100.43;109058;1256;60962;-82
2024/04/15 10:20:41;;;;;;;5.10;2.00;;;;;;;15.64;45.50;99073.31;109130;1256;75801;-85
2024/04/15 10:23:15;;;;;;;4.10;2.00;;;;;;;15.68;44.88;99075.59;109184;1256;70116;-84
2024/04/15 10:25:43;;;;;;;5.70;1.70;;;;;;;15.69;45.04;99062.08;108823;1257;73829;-81
2024/04/15 10:28:13;;;;;;;5.60;2.00;;;;;;;15.73;45.10;99063.54;108221;1256;61137;-85
2024/04/15 10:30:44;;;;;;;4.80;1.90;;;;;;;15.80;44.95;99056.23;109053;1257;59474;-86
2024/04/15 10:33:13;;;;;;;4.20;2.30;;;;;;;15.90;45.29;99045.90;109274;1256;75948;-88
2024/04/15 10:35:41;;;;;;;5.70;1.90;;;;;;;16.02;45.47;99046.48;109037;1256;70790;-82
2024/04/15 10:38:09;;;;;;;7.60;2.10;;;;;;;16.16;44.99;99047.55;108838;1256;74187;-84
2024/04/15 10:40:43;;;;;;;2.20;1.60;;;;;;;16.30;44.71;99053.77;108552;1257;60998;-79
2024/04/15 10:43:15;;;;;;;4.00;1.70;;;;;;;16.42;44.71;99048.02;108463;1256;60947;-79
2024/04/15 10:45:42;;;;;;;8.10;2.10;;;;;;;16.58;44.23;99050.33;108709;1257;75790;-79
2024/04/15 10:48:10;;;;;;;7.20;2.30;;;;;;;16.67;44.11;99055.55;108326;1256;72494;-79
2024/04/15 10:50:37;;;;;;;7.30;2.00;;;;;;;16.73;44.00;99053.27;108733;1256;73770;-79
2024/04/15 10:53:06;;;;;;;4.10;2.00;;;;;;;16.71;44.25;99051.32;108911;1256;60305;-80
2024/04/15 10:55:37;;;;;;;5.30;2.20;;;;;;;16.66;44.18;99052.95;109057;1256;60017;-84
2024/04/15 10:58:09;;;;;;;4.50;1.80;;;;;;;16.57;44.47;99064.52;109062;1256;74529;-85
2024/04/15 11:00:43;;;;;;;5.10;2.30;;;;;;;16.44;44.75;99070.45;109168;1256;69714;-84
2024/04/15 11:03:12;;;;;;;6.80;2.40;;;;;;;16.34;45.29;99084.28;108969;1256;73631;-83
2024/04/15 11:05:48;;;;;;;7.30;2.20;;;;;;;16.16;45.34;99065.20;108774;1256;61184;-84
2024/04/15 11:08:17;;;;;;;5.00;2.20;;;;;;;15.94;45.75;99068.48;108837;1256;60575;-85
2024/04/15 11:10:45;;;;;;;6.20;2.30;;;;;;;15.78;46.77;99084.73;108818;1256;75527;-84
2024/04/15 11:13:13;;;;;;;8.20;2.40;;;;;;;15.64;48.10;99085.52;108808;1256;69260;-84
2024/04/15 11:15:42;;;;;;;5.40;2.30;;;;;;;15.49;50.18;99099.04;108924;1256;73688;-83
2024/04/15 11:18:14;;;;;;;7.20;2.20;;;;;;;15.32;51.87;99102.67;109006;1256;61229;-81
2024/04/15 11:20:45;;;;;;;4.50;2.10;;;;;;;15.07;53.06;99108.80;109268;1256;58663;-83
2024/04/15 11:23:14;;;;;;;3.70;1.80;;;;;;;14.67;55.31;99113.25;109005;1256;74170;-84
2024/04/15 11:25:44;;;;;;;5.40;1.90;;;;;;;14.24;57.57;99103.63;109268;1256;69524;-85
2024/04/15 11:28:13;;;;;;;5.40;1.80;;;;;;;13.86;59.51;99095.42;109145;1256;73529;-85
2024/04/15 11:30:47;;;;;;;4.00;1.90;;;;;;;13.54;62.04;99111.08;109175;1256;61165;-87